sensor_id;sensor_type;location;lat;lon;timestamp;P1;durP1;ratioP1;P2;durP2;ratioP2
13566;SDS011;6855;48.112;11.298;2022-12-18T00:01:04;29.63;;;13.23;;
13566;SDS011;6855;48.112;11.298;2022-12-18T00:03:31;26.80;;;13.23;;
13566;SDS011;6855;48.112;11.298;2022-12-18T00:05:59;28.23;;;12.52;;
13566;SDS011;6855;48.112;11.298;2022-12-18T00:08:26;24.95;;;12.38;;
13566;SDS011;6855;48.112;11.298;2022-12-18T00:10:54;32.13;;;13.57;;
13566;SDS011;6855;48.112;11.298;2022-12-18T00:13:22;28.27;;;14.10;;
13566;SDS011;6855;48.112;11.298;2022-12-18T00:15:49;28.55;;;13.70;;
13566;SDS011;6855;48.112;11.298;2022-12-18T00:18:16;34.13;;;14.65;;
13566;SDS011;6855;48.112;11.298;2022-12-18T00:20:43;29.80;;;13.85;;
13566;SDS011;6855;48.112;11.298;2022-12-18T00:23:10;28.25;;;12.85;;
13566;SDS011;6855;48.112;11.298;2022-12-18T00:25:37;34.70;;;14.50;;
13566;SDS011;6855;48.112;11.298;2022-12-18T00:28:06;34.17;;;15.45;;
13566;SDS011;6855;48.112;11.298;2022-12-18T00:30:33;34.30;;;13.65;;
13566;SDS011;6855;48.112;11.298;2022-12-18T00:33:00;35.15;;;14.32;;
13566;SDS011;6855;48.112;11.298;2022-12-18T00:35:28;23.17;;;13.50;;
13566;SDS011;6855;48.112;11.298;2022-12-18T00:37:55;39.00;;;14.80;;
13566;SDS011;6855;48.112;11.298;2022-12-18T00:40:22;34.95;;;15.98;;
13566;SDS011;6855;48.112;11.298;2022-12-18T00:42:49;35.55;;;15.02;;
13566;SDS011;6855;48.112;11.298;2022-12-18T00:45:22;28.35;;;14.15;;
13566;SDS011;6855;48.112;11.298;2022-12-18T00:47:50;37.15;;;16.00;;
13566;SDS011;6855;48.112;11.298;2022-12-18T00:50:17;36.20;;;14.60;;
13566;SDS011;6855;48.112;11.298;2022-12-18T00:52:44;30.35;;;15.05;;
13566;SDS011;6855;48.112;11.298;2022-12-18T00:55:11;35.08;;;15.75;;
13566;SDS011;6855;48.112;11.298;2022-12-18T00:57:39;34.08;;;15.70;;
13566;SDS011;6855;48.112;11.298;2022-12-18T01:00:08;44.00;;;16.67;;
13566;SDS011;6855;48.112;11.298;2022-12-18T01:02:38;38.25;;;15.55;;
13566;SDS011;6855;48.112;11.298;2022-12-18T01:05:05;39.03;;;15.35;;
13566;SDS011;6855;48.112;11.298;2022-12-18T01:07:32;37.33;;;16.83;;
13566;SDS011;6855;48.112;11.298;2022-12-18T01:09:59;37.15;;;16.23;;
13566;SDS011;6855;48.112;11.298;2022-12-18T01:12:27;40.33;;;16.05;;
13566;SDS011;6855;48.112;11.298;2022-12-18T01:14:54;30.73;;;14.88;;
13566;SDS011;6855;48.112;11.298;2022-12-18T01:17:21;32.10;;;13.77;;
13566;SDS011;6855;48.112;11.298;2022-12-18T01:19:50;27.00;;;13.32;;
13566;SDS011;6855;48.112;11.298;2022-12-18T01:22:17;39.17;;;14.82;;
13566;SDS011;6855;48.112;11.298;2022-12-18T01:24:44;43.72;;;16.10;;
13566;SDS011;6855;48.112;11.298;2022-12-18T01:27:11;35.67;;;15.50;;
13566;SDS011;6855;48.112;11.298;2022-12-18T01:29:38;34.88;;;15.77;;
13566;SDS011;6855;48.112;11.298;2022-12-18T01:32:06;39.70;;;14.90;;
13566;SDS011;6855;48.112;11.298;2022-12-18T01:34:33;30.98;;;14.70;;
13566;SDS011;6855;48.112;11.298;2022-12-18T01:37:03;38.25;;;15.13;;
13566;SDS011;6855;48.112;11.298;2022-12-18T01:39:30;33.08;;;14.55;;
13566;SDS011;6855;48.112;11.298;2022-12-18T01:41:58;35.70;;;14.90;;
13566;SDS011;6855;48.112;11.298;2022-12-18T01:47:14;36.00;;;14.35;;
13566;SDS011;6855;48.112;11.298;2022-12-18T01:49:42;38.58;;;13.48;;
13566;SDS011;6855;48.112;11.298;2022-12-18T01:52:10;33.58;;;14.07;;
13566;SDS011;6855;48.112;11.298;2022-12-18T01:54:38;32.20;;;15.43;;
13566;SDS011;6855;48.112;11.298;2022-12-18T01:57:05;33.10;;;14.32;;
13566;SDS011;6855;48.112;11.298;2022-12-18T01:59:32;35.10;;;13.48;;
13566;SDS011;6855;48.112;11.298;2022-12-18T02:02:00;28.15;;;13.18;;
13566;SDS011;6855;48.112;11.298;2022-12-18T02:04:28;27.52;;;11.90;;
13566;SDS011;6855;48.112;11.298;2022-12-18T02:06:56;30.55;;;12.32;;
13566;SDS011;6855;48.112;11.298;2022-12-18T02:09:29;30.70;;;13.55;;
13566;SDS011;6855;48.112;11.298;2022-12-18T02:11:59;28.00;;;12.25;;
13566;SDS011;6855;48.112;11.298;2022-12-18T02:14:30;27.75;;;11.10;;
13566;SDS011;6855;48.112;11.298;2022-12-18T02:16:59;34.67;;;13.13;;
13566;SDS011;6855;48.112;11.298;2022-12-18T02:19:34;30.55;;;12.77;;
13566;SDS011;6855;48.112;11.298;2022-12-18T02:22:06;35.42;;;12.88;;
13566;SDS011;6855;48.112;11.298;2022-12-18T02:24:40;34.33;;;13.02;;
13566;SDS011;6855;48.112;11.298;2022-12-18T02:27:12;27.70;;;9.60;;
13566;SDS011;6855;48.112;11.298;2022-12-18T02:29:41;36.53;;;12.27;;
13566;SDS011;6855;48.112;11.298;2022-12-18T02:32:11;30.00;;;11.82;;
13566;SDS011;6855;48.112;11.298;2022-12-18T02:34:41;32.78;;;12.13;;
13566;SDS011;6855;48.112;11.298;2022-12-18T02:37:11;29.35;;;11.85;;
13566;SDS011;6855;48.112;11.298;2022-12-18T02:39:40;34.17;;;13.45;;
13566;SDS011;6855;48.112;11.298;2022-12-18T02:42:10;31.00;;;12.30;;
13566;SDS011;6855;48.112;11.298;2022-12-18T02:44:41;39.40;;;14.98;;
13566;SDS011;6855;48.112;11.298;2022-12-18T02:47:09;30.73;;;11.48;;
13566;SDS011;6855;48.112;11.298;2022-12-18T02:49:40;30.60;;;13.10;;
13566;SDS011;6855;48.112;11.298;2022-12-18T02:52:12;32.15;;;13.68;;
13566;SDS011;6855;48.112;11.298;2022-12-18T02:54:52;38.30;;;14.02;;
13566;SDS011;6855;48.112;11.298;2022-12-18T02:57:25;30.45;;;14.00;;
13566;SDS011;6855;48.112;11.298;2022-12-18T03:00:00;33.38;;;13.38;;
13566;SDS011;6855;48.112;11.298;2022-12-18T03:02:29;35.33;;;14.07;;
13566;SDS011;6855;48.112;11.298;2022-12-18T03:05:01;31.63;;;13.23;;
13566;SDS011;6855;48.112;11.298;2022-12-18T03:07:34;35.28;;;13.23;;
13566;SDS011;6855;48.112;11.298;2022-12-18T03:10:03;34.10;;;13.35;;
13566;SDS011;6855;48.112;11.298;2022-12-18T03:12:34;35.65;;;14.85;;
13566;SDS011;6855;48.112;11.298;2022-12-18T03:15:03;35.10;;;13.95;;
13566;SDS011;6855;48.112;11.298;2022-12-18T03:17:32;31.13;;;13.20;;
13566;SDS011;6855;48.112;11.298;2022-12-18T03:20:03;33.15;;;11.30;;
13566;SDS011;6855;48.112;11.298;2022-12-18T03:22:32;33.38;;;12.23;;
13566;SDS011;6855;48.112;11.298;2022-12-18T03:25:00;33.90;;;12.25;;
13566;SDS011;6855;48.112;11.298;2022-12-18T03:27:28;41.60;;;14.98;;
13566;SDS011;6855;48.112;11.298;2022-12-18T03:30:00;38.50;;;13.07;;
13566;SDS011;6855;48.112;11.298;2022-12-18T03:32:33;35.00;;;14.68;;
13566;SDS011;6855;48.112;11.298;2022-12-18T03:35:03;31.58;;;11.20;;
13566;SDS011;6855;48.112;11.298;2022-12-18T03:37:31;34.72;;;13.02;;
13566;SDS011;6855;48.112;11.298;2022-12-18T03:39:58;35.67;;;12.25;;
13566;SDS011;6855;48.112;11.298;2022-12-18T03:42:26;32.67;;;12.68;;
13566;SDS011;6855;48.112;11.298;2022-12-18T03:44:56;38.13;;;14.15;;
13566;SDS011;6855;48.112;11.298;2022-12-18T03:47:26;33.67;;;11.98;;
13566;SDS011;6855;48.112;11.298;2022-12-18T03:49:55;27.50;;;11.55;;
13566;SDS011;6855;48.112;11.298;2022-12-18T03:52:25;37.72;;;14.05;;
13566;SDS011;6855;48.112;11.298;2022-12-18T03:54:53;31.83;;;14.15;;
13566;SDS011;6855;48.112;11.298;2022-12-18T03:57:22;31.73;;;12.57;;
13566;SDS011;6855;48.112;11.298;2022-12-18T03:59:51;37.08;;;14.40;;
13566;SDS011;6855;48.112;11.298;2022-12-18T04:02:21;33.22;;;13.63;;
13566;SDS011;6855;48.112;11.298;2022-12-18T04:04:51;41.47;;;15.15;;
13566;SDS011;6855;48.112;11.298;2022-12-18T04:07:19;34.42;;;13.43;;
13566;SDS011;6855;48.112;11.298;2022-12-18T04:09:47;39.95;;;14.63;;
13566;SDS011;6855;48.112;11.298;2022-12-18T04:12:15;33.88;;;12.90;;
13566;SDS011;6855;48.112;11.298;2022-12-18T04:14:42;34.63;;;13.05;;
13566;SDS011;6855;48.112;11.298;2022-12-18T04:17:10;33.70;;;13.50;;
13566;SDS011;6855;48.112;11.298;2022-12-18T04:19:37;35.10;;;14.63;;
13566;SDS011;6855;48.112;11.298;2022-12-18T04:22:05;42.03;;;14.98;;
13566;SDS011;6855;48.112;11.298;2022-12-18T04:24:33;41.13;;;14.95;;
13566;SDS011;6855;48.112;11.298;2022-12-18T04:27:00;41.60;;;13.50;;
13566;SDS011;6855;48.112;11.298;2022-12-18T04:29:27;46.03;;;15.63;;
13566;SDS011;6855;48.112;11.298;2022-12-18T04:31:54;32.10;;;14.35;;
13566;SDS011;6855;48.112;11.298;2022-12-18T04:34:21;38.75;;;15.05;;
13566;SDS011;6855;48.112;11.298;2022-12-18T04:36:48;42.40;;;15.23;;
13566;SDS011;6855;48.112;11.298;2022-12-18T04:39:17;45.38;;;15.75;;
13566;SDS011;6855;48.112;11.298;2022-12-18T04:41:44;45.88;;;16.52;;
13566;SDS011;6855;48.112;11.298;2022-12-18T04:44:12;39.05;;;15.88;;
13566;SDS011;6855;48.112;11.298;2022-12-18T04:46:39;31.30;;;13.15;;
13566;SDS011;6855;48.112;11.298;2022-12-18T04:49:46;36.83;;;14.68;;
13566;SDS011;6855;48.112;11.298;2022-12-18T04:52:03;35.05;;;14.13;;
13566;SDS011;6855;48.112;11.298;2022-12-18T04:54:32;34.70;;;13.57;;
13566;SDS011;6855;48.112;11.298;2022-12-18T04:56:59;44.72;;;15.18;;
13566;SDS011;6855;48.112;11.298;2022-12-18T04:59:29;33.75;;;14.05;;
13566;SDS011;6855;48.112;11.298;2022-12-18T05:01:57;44.55;;;16.38;;
13566;SDS011;6855;48.112;11.298;2022-12-18T05:04:24;40.10;;;15.55;;
13566;SDS011;6855;48.112;11.298;2022-12-18T05:06:51;34.00;;;14.88;;
13566;SDS011;6855;48.112;11.298;2022-12-18T05:09:18;32.92;;;13.93;;
13566;SDS011;6855;48.112;11.298;2022-12-18T05:11:47;30.80;;;13.20;;
13566;SDS011;6855;48.112;11.298;2022-12-18T05:14:14;40.15;;;15.65;;
13566;SDS011;6855;48.112;11.298;2022-12-18T05:16:41;34.72;;;14.88;;
13566;SDS011;6855;48.112;11.298;2022-12-18T05:19:08;37.35;;;15.30;;
13566;SDS011;6855;48.112;11.298;2022-12-18T05:21:35;37.90;;;14.80;;
13566;SDS011;6855;48.112;11.298;2022-12-18T05:24:03;40.75;;;15.55;;
13566;SDS011;6855;48.112;11.298;2022-12-18T05:26:30;40.92;;;14.32;;
13566;SDS011;6855;48.112;11.298;2022-12-18T05:28:59;40.10;;;14.73;;
13566;SDS011;6855;48.112;11.298;2022-12-18T05:31:26;42.92;;;15.27;;
13566;SDS011;6855;48.112;11.298;2022-12-18T05:33:53;42.25;;;16.23;;
13566;SDS011;6855;48.112;11.298;2022-12-18T05:36:23;37.75;;;14.88;;
13566;SDS011;6855;48.112;11.298;2022-12-18T05:38:50;39.95;;;15.75;;
13566;SDS011;6855;48.112;11.298;2022-12-18T05:41:17;36.10;;;15.20;;
13566;SDS011;6855;48.112;11.298;2022-12-18T05:43:44;40.13;;;14.80;;
13566;SDS011;6855;48.112;11.298;2022-12-18T05:46:14;42.08;;;15.50;;
13566;SDS011;6855;48.112;11.298;2022-12-18T05:48:42;40.50;;;16.77;;
13566;SDS011;6855;48.112;11.298;2022-12-18T05:51:11;36.25;;;15.45;;
13566;SDS011;6855;48.112;11.298;2022-12-18T05:53:39;39.78;;;14.95;;
13566;SDS011;6855;48.112;11.298;2022-12-18T05:56:08;35.30;;;14.20;;
13566;SDS011;6855;48.112;11.298;2022-12-18T05:58:35;40.22;;;15.13;;
13566;SDS011;6855;48.112;11.298;2022-12-18T06:01:06;37.17;;;15.48;;
13566;SDS011;6855;48.112;11.298;2022-12-18T06:03:35;40.38;;;14.77;;
13566;SDS011;6855;48.112;11.298;2022-12-18T06:06:02;39.33;;;15.82;;
13566;SDS011;6855;48.112;11.298;2022-12-18T06:08:29;43.70;;;18.25;;
13566;SDS011;6855;48.112;11.298;2022-12-18T06:10:57;35.47;;;15.63;;
13566;SDS011;6855;48.112;11.298;2022-12-18T06:13:24;40.95;;;14.90;;
13566;SDS011;6855;48.112;11.298;2022-12-18T06:15:51;43.97;;;17.13;;
13566;SDS011;6855;48.112;11.298;2022-12-18T06:18:18;43.47;;;17.50;;
13566;SDS011;6855;48.112;11.298;2022-12-18T06:20:55;35.80;;;14.45;;
13566;SDS011;6855;48.112;11.298;2022-12-18T06:23:22;42.33;;;16.17;;
13566;SDS011;6855;48.112;11.298;2022-12-18T06:25:49;43.50;;;16.65;;
13566;SDS011;6855;48.112;11.298;2022-12-18T06:28:16;35.65;;;16.08;;
13566;SDS011;6855;48.112;11.298;2022-12-18T06:30:44;37.50;;;14.93;;
13566;SDS011;6855;48.112;11.298;2022-12-18T06:33:11;39.45;;;16.60;;
13566;SDS011;6855;48.112;11.298;2022-12-18T06:35:38;35.22;;;13.73;;
13566;SDS011;6855;48.112;11.298;2022-12-18T06:38:07;43.30;;;16.73;;
13566;SDS011;6855;48.112;11.298;2022-12-18T06:40:35;34.67;;;14.65;;
13566;SDS011;6855;48.112;11.298;2022-12-18T06:43:03;41.22;;;15.73;;
13566;SDS011;6855;48.112;11.298;2022-12-18T06:45:30;37.20;;;14.32;;
13566;SDS011;6855;48.112;11.298;2022-12-18T06:47:57;39.30;;;16.05;;
13566;SDS011;6855;48.112;11.298;2022-12-18T06:50:25;38.42;;;14.75;;
13566;SDS011;6855;48.112;11.298;2022-12-18T06:52:52;49.25;;;17.75;;
13566;SDS011;6855;48.112;11.298;2022-12-18T06:55:21;38.72;;;14.90;;
13566;SDS011;6855;48.112;11.298;2022-12-18T06:57:48;48.50;;;17.35;;
13566;SDS011;6855;48.112;11.298;2022-12-18T07:00:15;37.42;;;15.20;;
13566;SDS011;6855;48.112;11.298;2022-12-18T07:02:42;39.20;;;15.50;;
13566;SDS011;6855;48.112;11.298;2022-12-18T07:05:10;38.58;;;14.85;;
13566;SDS011;6855;48.112;11.298;2022-12-18T07:07:37;41.85;;;16.17;;
13566;SDS011;6855;48.112;11.298;2022-12-18T07:10:05;37.47;;;15.52;;
13566;SDS011;6855;48.112;11.298;2022-12-18T07:15:02;32.75;;;14.07;;
13566;SDS011;6855;48.112;11.298;2022-12-18T07:17:29;34.25;;;14.20;;
13566;SDS011;6855;48.112;11.298;2022-12-18T07:19:56;40.50;;;16.10;;
13566;SDS011;6855;48.112;11.298;2022-12-18T07:22:24;36.80;;;15.20;;
13566;SDS011;6855;48.112;11.298;2022-12-18T07:24:52;35.08;;;14.30;;
13566;SDS011;6855;48.112;11.298;2022-12-18T07:27:20;41.80;;;15.60;;
13566;SDS011;6855;48.112;11.298;2022-12-18T07:29:47;41.60;;;14.90;;
13566;SDS011;6855;48.112;11.298;2022-12-18T07:32:16;39.38;;;15.82;;
13566;SDS011;6855;48.112;11.298;2022-12-18T07:34:43;33.25;;;13.70;;
13566;SDS011;6855;48.112;11.298;2022-12-18T07:37:10;35.60;;;14.95;;
13566;SDS011;6855;48.112;11.298;2022-12-18T07:39:37;40.25;;;14.98;;
13566;SDS011;6855;48.112;11.298;2022-12-18T07:42:04;31.65;;;14.10;;
13566;SDS011;6855;48.112;11.298;2022-12-18T07:44:49;31.67;;;13.43;;
13566;SDS011;6855;48.112;11.298;2022-12-18T07:47:18;39.95;;;14.50;;
13566;SDS011;6855;48.112;11.298;2022-12-18T07:49:45;35.78;;;15.13;;
13566;SDS011;6855;48.112;11.298;2022-12-18T07:52:12;37.95;;;15.88;;
13566;SDS011;6855;48.112;11.298;2022-12-18T07:54:40;37.85;;;15.18;;
13566;SDS011;6855;48.112;11.298;2022-12-18T07:57:07;42.17;;;14.25;;
13566;SDS011;6855;48.112;11.298;2022-12-18T07:59:34;32.40;;;13.05;;
13566;SDS011;6855;48.112;11.298;2022-12-18T08:02:01;35.20;;;14.18;;
13566;SDS011;6855;48.112;11.298;2022-12-18T08:04:30;28.83;;;13.23;;
13566;SDS011;6855;48.112;11.298;2022-12-18T08:06:57;31.38;;;13.60;;
13566;SDS011;6855;48.112;11.298;2022-12-18T08:09:24;35.38;;;14.95;;
13566;SDS011;6855;48.112;11.298;2022-12-18T08:11:51;40.78;;;16.33;;
13566;SDS011;6855;48.112;11.298;2022-12-18T08:14:18;31.75;;;15.07;;
13566;SDS011;6855;48.112;11.298;2022-12-18T08:16:45;30.73;;;13.07;;
13566;SDS011;6855;48.112;11.298;2022-12-18T08:19:13;35.80;;;14.68;;
13566;SDS011;6855;48.112;11.298;2022-12-18T08:21:42;31.75;;;13.80;;
13566;SDS011;6855;48.112;11.298;2022-12-18T08:24:10;30.60;;;14.02;;
13566;SDS011;6855;48.112;11.298;2022-12-18T08:26:37;38.70;;;16.35;;
13566;SDS011;6855;48.112;11.298;2022-12-18T08:29:04;38.92;;;14.32;;
13566;SDS011;6855;48.112;11.298;2022-12-18T08:31:31;38.05;;;15.40;;
13566;SDS011;6855;48.112;11.298;2022-12-18T08:33:59;37.60;;;15.02;;
13566;SDS011;6855;48.112;11.298;2022-12-18T08:36:26;33.65;;;14.50;;
13566;SDS011;6855;48.112;11.298;2022-12-18T08:38:55;34.05;;;14.88;;
13566;SDS011;6855;48.112;11.298;2022-12-18T08:41:23;28.35;;;12.05;;
13566;SDS011;6855;48.112;11.298;2022-12-18T08:43:50;33.20;;;13.63;;
13566;SDS011;6855;48.112;11.298;2022-12-18T08:46:35;34.67;;;14.20;;
13566;SDS011;6855;48.112;11.298;2022-12-18T08:49:03;25.15;;;11.30;;
13566;SDS011;6855;48.112;11.298;2022-12-18T08:51:30;36.35;;;14.18;;
13566;SDS011;6855;48.112;11.298;2022-12-18T08:53:59;37.05;;;17.67;;
13566;SDS011;6855;48.112;11.298;2022-12-18T08:56:26;31.67;;;14.90;;
13566;SDS011;6855;48.112;11.298;2022-12-18T08:58:55;35.60;;;14.00;;
13566;SDS011;6855;48.112;11.298;2022-12-18T09:01:22;41.13;;;14.82;;
13566;SDS011;6855;48.112;11.298;2022-12-18T09:03:49;37.28;;;14.50;;
13566;SDS011;6855;48.112;11.298;2022-12-18T09:06:17;29.42;;;12.63;;
13566;SDS011;6855;48.112;11.298;2022-12-18T09:08:45;31.23;;;12.60;;
13566;SDS011;6855;48.112;11.298;2022-12-18T09:11:14;30.73;;;12.43;;
13566;SDS011;6855;48.112;11.298;2022-12-18T09:13:42;31.13;;;11.93;;
13566;SDS011;6855;48.112;11.298;2022-12-18T09:16:09;30.98;;;12.02;;
13566;SDS011;6855;48.112;11.298;2022-12-18T09:18:36;28.52;;;11.63;;
13566;SDS011;6855;48.112;11.298;2022-12-18T09:21:10;32.55;;;12.65;;
13566;SDS011;6855;48.112;11.298;2022-12-18T09:23:38;32.00;;;12.13;;
13566;SDS011;6855;48.112;11.298;2022-12-18T09:26:06;34.45;;;13.02;;
13566;SDS011;6855;48.112;11.298;2022-12-18T09:28:35;25.67;;;11.77;;
13566;SDS011;6855;48.112;11.298;2022-12-18T09:31:03;33.78;;;13.30;;
13566;SDS011;6855;48.112;11.298;2022-12-18T09:33:31;29.67;;;13.40;;
13566;SDS011;6855;48.112;11.298;2022-12-18T09:36:00;34.90;;;12.57;;
13566;SDS011;6855;48.112;11.298;2022-12-18T09:38:27;25.90;;;11.00;;
13566;SDS011;6855;48.112;11.298;2022-12-18T09:40:56;24.48;;;11.60;;
13566;SDS011;6855;48.112;11.298;2022-12-18T09:43:26;28.77;;;10.88;;
13566;SDS011;6855;48.112;11.298;2022-12-18T09:45:57;32.05;;;13.15;;
13566;SDS011;6855;48.112;11.298;2022-12-18T09:48:26;28.88;;;14.07;;
13566;SDS011;6855;48.112;11.298;2022-12-18T09:50:55;25.95;;;12.52;;
13566;SDS011;6855;48.112;11.298;2022-12-18T09:53:24;28.40;;;12.15;;
13566;SDS011;6855;48.112;11.298;2022-12-18T09:55:53;28.27;;;13.30;;
13566;SDS011;6855;48.112;11.298;2022-12-18T09:58:24;30.80;;;12.52;;
13566;SDS011;6855;48.112;11.298;2022-12-18T10:00:53;34.80;;;13.45;;
13566;SDS011;6855;48.112;11.298;2022-12-18T10:03:22;31.13;;;12.93;;
13566;SDS011;6855;48.112;11.298;2022-12-18T10:05:52;39.35;;;14.48;;
13566;SDS011;6855;48.112;11.298;2022-12-18T10:08:23;32.58;;;12.85;;
13566;SDS011;6855;48.112;11.298;2022-12-18T10:10:52;35.97;;;14.10;;
13566;SDS011;6855;48.112;11.298;2022-12-18T10:13:22;31.27;;;12.75;;
13566;SDS011;6855;48.112;11.298;2022-12-18T10:16:02;29.67;;;11.82;;
13566;SDS011;6855;48.112;11.298;2022-12-18T10:18:36;37.50;;;12.60;;
13566;SDS011;6855;48.112;11.298;2022-12-18T10:21:07;30.65;;;12.25;;
13566;SDS011;6855;48.112;11.298;2022-12-18T10:23:38;27.67;;;11.15;;
13566;SDS011;6855;48.112;11.298;2022-12-18T10:26:08;30.17;;;13.20;;
13566;SDS011;6855;48.112;11.298;2022-12-18T10:28:38;33.92;;;13.68;;
13566;SDS011;6855;48.112;11.298;2022-12-18T10:31:05;31.52;;;11.90;;
13566;SDS011;6855;48.112;11.298;2022-12-18T10:33:34;29.00;;;12.63;;
13566;SDS011;6855;48.112;11.298;2022-12-18T10:36:13;31.08;;;12.88;;
13566;SDS011;6855;48.112;11.298;2022-12-18T10:41:29;24.77;;;11.57;;
13566;SDS011;6855;48.112;11.298;2022-12-18T10:44:10;29.50;;;12.65;;
13566;SDS011;6855;48.112;11.298;2022-12-18T10:46:37;34.78;;;13.82;;
13566;SDS011;6855;48.112;11.298;2022-12-18T10:49:17;35.63;;;14.63;;
13566;SDS011;6855;48.112;11.298;2022-12-18T10:51:45;35.90;;;13.52;;
13566;SDS011;6855;48.112;11.298;2022-12-18T10:54:18;27.38;;;11.98;;
13566;SDS011;6855;48.112;11.298;2022-12-18T10:56:46;28.65;;;12.48;;
13566;SDS011;6855;48.112;11.298;2022-12-18T10:59:14;31.30;;;13.30;;
13566;SDS011;6855;48.112;11.298;2022-12-18T11:01:45;26.40;;;11.93;;
13566;SDS011;6855;48.112;11.298;2022-12-18T11:04:17;33.47;;;12.45;;
13566;SDS011;6855;48.112;11.298;2022-12-18T11:06:55;35.92;;;11.80;;
13566;SDS011;6855;48.112;11.298;2022-12-18T11:09:23;30.90;;;12.10;;
13566;SDS011;6855;48.112;11.298;2022-12-18T11:11:51;33.63;;;12.37;;
13566;SDS011;6855;48.112;11.298;2022-12-18T11:14:21;35.50;;;12.40;;
13566;SDS011;6855;48.112;11.298;2022-12-18T11:16:49;31.50;;;13.17;;
13566;SDS011;6855;48.112;11.298;2022-12-18T11:19:28;32.13;;;12.03;;
13566;SDS011;6855;48.112;11.298;2022-12-18T11:21:57;29.80;;;13.60;;
13566;SDS011;6855;48.112;11.298;2022-12-18T11:24:27;28.60;;;12.30;;
13566;SDS011;6855;48.112;11.298;2022-12-18T11:26:55;28.53;;;13.00;;
13566;SDS011;6855;48.112;11.298;2022-12-18T11:29:31;33.07;;;12.43;;
13566;SDS011;6855;48.112;11.298;2022-12-18T11:32:14;28.93;;;12.93;;
13566;SDS011;6855;48.112;11.298;2022-12-18T11:34:48;23.80;;;11.57;;
13566;SDS011;6855;48.112;11.298;2022-12-18T11:37:16;24.00;;;12.10;;
13566;SDS011;6855;48.112;11.298;2022-12-18T11:39:46;23.27;;;11.37;;
13566;SDS011;6855;48.112;11.298;2022-12-18T11:42:18;28.00;;;12.20;;
13566;SDS011;6855;48.112;11.298;2022-12-18T11:44:49;29.37;;;11.93;;
13566;SDS011;6855;48.112;11.298;2022-12-18T11:47:22;30.50;;;12.67;;
13566;SDS011;6855;48.112;11.298;2022-12-18T11:49:53;30.52;;;11.80;;
13566;SDS011;6855;48.112;11.298;2022-12-18T11:52:22;35.90;;;13.90;;
13566;SDS011;6855;48.112;11.298;2022-12-18T11:54:51;27.17;;;12.83;;
13566;SDS011;6855;48.112;11.298;2022-12-18T11:57:22;29.30;;;13.93;;
13566;SDS011;6855;48.112;11.298;2022-12-18T11:59:52;23.50;;;11.30;;
13566;SDS011;6855;48.112;11.298;2022-12-18T12:02:26;28.53;;;12.43;;
13566;SDS011;6855;48.112;11.298;2022-12-18T12:05:09;33.60;;;14.60;;
13566;SDS011;6855;48.112;11.298;2022-12-18T12:07:38;34.00;;;13.67;;
13566;SDS011;6855;48.112;11.298;2022-12-18T12:10:17;30.42;;;12.18;;
13566;SDS011;6855;48.112;11.298;2022-12-18T12:12:55;29.70;;;12.52;;
13566;SDS011;6855;48.112;11.298;2022-12-18T12:15:27;30.50;;;13.45;;
13566;SDS011;6855;48.112;11.298;2022-12-18T12:17:57;27.75;;;11.98;;
13566;SDS011;6855;48.112;11.298;2022-12-18T12:20:30;33.30;;;14.07;;
13566;SDS011;6855;48.112;11.298;2022-12-18T12:23:01;31.50;;;12.48;;
13566;SDS011;6855;48.112;11.298;2022-12-18T12:25:33;27.27;;;12.48;;
13566;SDS011;6855;48.112;11.298;2022-12-18T12:28:08;26.30;;;12.15;;
13566;SDS011;6855;48.112;11.298;2022-12-18T12:30:39;29.20;;;11.57;;
13566;SDS011;6855;48.112;11.298;2022-12-18T12:33:14;25.52;;;11.90;;
13566;SDS011;6855;48.112;11.298;2022-12-18T12:35:48;29.17;;;11.23;;
13566;SDS011;6855;48.112;11.298;2022-12-18T12:38:19;28.25;;;12.50;;
13566;SDS011;6855;48.112;11.298;2022-12-18T12:40:51;25.60;;;12.20;;
13566;SDS011;6855;48.112;11.298;2022-12-18T12:43:24;25.05;;;10.15;;
13566;SDS011;6855;48.112;11.298;2022-12-18T12:45:53;23.20;;;10.90;;
13566;SDS011;6855;48.112;11.298;2022-12-18T12:48:25;29.85;;;12.55;;
13566;SDS011;6855;48.112;11.298;2022-12-18T12:50:55;24.25;;;11.07;;
13566;SDS011;6855;48.112;11.298;2022-12-18T12:53:25;31.55;;;12.07;;
13566;SDS011;6855;48.112;11.298;2022-12-18T12:55:53;27.52;;;12.35;;
13566;SDS011;6855;48.112;11.298;2022-12-18T12:58:23;31.33;;;13.18;;
13566;SDS011;6855;48.112;11.298;2022-12-18T13:00:54;30.33;;;12.30;;
13566;SDS011;6855;48.112;11.298;2022-12-18T13:03:27;29.52;;;12.20;;
13566;SDS011;6855;48.112;11.298;2022-12-18T13:06:00;31.55;;;12.90;;
13566;SDS011;6855;48.112;11.298;2022-12-18T13:08:30;27.80;;;12.45;;
13566;SDS011;6855;48.112;11.298;2022-12-18T13:10:58;23.13;;;10.70;;
13566;SDS011;6855;48.112;11.298;2022-12-18T13:13:49;32.17;;;12.55;;
13566;SDS011;6855;48.112;11.298;2022-12-18T13:16:18;25.52;;;12.30;;
13566;SDS011;6855;48.112;11.298;2022-12-18T13:18:48;27.20;;;11.50;;
13566;SDS011;6855;48.112;11.298;2022-12-18T13:21:20;26.92;;;11.65;;
13566;SDS011;6855;48.112;11.298;2022-12-18T13:23:49;30.85;;;11.60;;
13566;SDS011;6855;48.112;11.298;2022-12-18T13:29:05;27.90;;;11.32;;
13566;SDS011;6855;48.112;11.298;2022-12-18T13:34:33;31.45;;;13.93;;
13566;SDS011;6855;48.112;11.298;2022-12-18T13:39:48;34.83;;;13.15;;
13566;SDS011;6855;48.112;11.298;2022-12-18T13:48:05;29.52;;;13.20;;
13566;SDS011;6855;48.112;11.298;2022-12-18T13:50:32;34.38;;;13.88;;
13566;SDS011;6855;48.112;11.298;2022-12-18T13:53:00;39.42;;;14.43;;
13566;SDS011;6855;48.112;11.298;2022-12-18T13:55:29;30.80;;;12.60;;
13566;SDS011;6855;48.112;11.298;2022-12-18T13:58:02;29.90;;;12.77;;
13566;SDS011;6855;48.112;11.298;2022-12-18T14:00:30;29.85;;;13.65;;
13566;SDS011;6855;48.112;11.298;2022-12-18T14:03:00;24.27;;;12.27;;
13566;SDS011;6855;48.112;11.298;2022-12-18T14:05:28;30.88;;;12.60;;
13566;SDS011;6855;48.112;11.298;2022-12-18T14:07:58;26.95;;;12.50;;
13566;SDS011;6855;48.112;11.298;2022-12-18T14:10:32;27.73;;;12.35;;
13566;SDS011;6855;48.112;11.298;2022-12-18T14:13:02;32.85;;;12.95;;
13566;SDS011;6855;48.112;11.298;2022-12-18T14:15:32;29.80;;;13.68;;
13566;SDS011;6855;48.112;11.298;2022-12-18T14:18:01;33.03;;;13.73;;
13566;SDS011;6855;48.112;11.298;2022-12-18T14:20:29;30.35;;;13.48;;
13566;SDS011;6855;48.112;11.298;2022-12-18T14:22:57;29.48;;;12.88;;
13566;SDS011;6855;48.112;11.298;2022-12-18T14:25:25;45.38;;;14.43;;
13566;SDS011;6855;48.112;11.298;2022-12-18T14:28:01;26.73;;;12.02;;
13566;SDS011;6855;48.112;11.298;2022-12-18T14:30:30;27.67;;;12.52;;
13566;SDS011;6855;48.112;11.298;2022-12-18T14:33:04;34.28;;;13.52;;
13566;SDS011;6855;48.112;11.298;2022-12-18T14:35:32;31.48;;;12.43;;
13566;SDS011;6855;48.112;11.298;2022-12-18T14:38:10;32.88;;;12.80;;
13566;SDS011;6855;48.112;11.298;2022-12-18T14:40:37;25.70;;;11.27;;
13566;SDS011;6855;48.112;11.298;2022-12-18T14:43:08;32.47;;;12.15;;
13566;SDS011;6855;48.112;11.298;2022-12-18T14:45:39;28.88;;;11.88;;
13566;SDS011;6855;48.112;11.298;2022-12-18T14:48:07;30.70;;;12.90;;
13566;SDS011;6855;48.112;11.298;2022-12-18T14:50:34;30.05;;;12.40;;
13566;SDS011;6855;48.112;11.298;2022-12-18T14:53:02;29.40;;;12.50;;
13566;SDS011;6855;48.112;11.298;2022-12-18T14:55:29;32.08;;;13.43;;